Latest Weather Observations for Wilsons Promontory

IDV60801

Issued at 11:03 am EDT Wednesday 18 October 2017 (issued every 30 minutes, with the page automatically refreshed every 10 minutes)

About weather observations | Map of weather stations | Latest weather observations for VIC | Other Formats
Station Details ID: 085096 Name: WILSONS PROMONTORY LIGHTHOUSE Lat: -39.13 Lon: 146.42 Height: 95.0 m
Data from the previous 72 hours. | See also: Recent months at Wilsons Promontory
Date/Time
EDT
Temp
°C
App
Temp
°C
Dew
Point
°C
Rel
Hum
%
Delta-T
°C
Wind Press
QNH
hPa
Press
MSL
hPa
Rain since
9am
mm
Dir  Spd
km/h
Gust
km/h
Spd
kts
Gust
kts
18/11:00am 24.0 21.6 11.3 45 7.1 WNW 15 30 8 16 1021.3 - 0.0
18/10:30am 26.9 23.6 6.3 27 10.8 NW 13 28 7 15 1021.3 - 0.0
18/10:00am 27.2 23.4 6.0 26 11.1 NW 15 32 8 17 1021.5 - 0.0
18/09:30am 26.4 21.3 5.9 27 10.6 NW 22 33 12 18 1021.4 - 0.0
18/09:00am 25.6 20.8 4.7 26 10.5 NNW 19 32 10 17 1021.4 1021.4 0.0
18/08:30am 23.1 19.8 8.0 38 8.0 NNW 15 33 8 18 1021.5 - 0.0
18/08:00am 25.0 21.1 3.6 25 10.6 NW 13 30 7 16 1021.3 - 0.0
18/07:30am 23.1 19.9 5.1 31 9.0 N 11 19 6 10 1021.3 - 0.0
18/07:00am 20.8 19.0 7.1 41 7.0 NNW 6 11 3 6 1021.2 - 0.0
18/06:30am 20.3 17.8 8.0 45 6.4 NW 11 20 6 11 1021.1 - 0.0
18/06:00am 17.0 16.2 11.7 71 2.9 WSW 7 11 4 6 1020.8 1020.8 0.0
18/05:30am 15.8 15.0 12.9 83 1.6 WSW 9 13 5 7 1020.6 - 0.0
18/05:00am 15.0 11.4 13.2 89 1.0 NNE 24 26 13 14 1020.2 - 0.0
18/04:30am 14.9 10.2 13.1 89 1.0 NNE 30 33 16 18 1020.0 - 0.0
18/04:00am 14.8 9.4 12.8 88 1.1 NNE 33 39 18 21 1020.0 - 0.0
18/03:30am 14.9 9.5 12.2 84 1.5 NNE 32 35 17 19 1020.1 - 0.0
18/03:00am 16.7 11.6 10.5 67 3.3 NNE 28 33 15 18 1020.3 1020.3 0.0
18/02:30am 20.7 13.7 4.3 34 8.0 NNE 30 35 16 19 1020.5 - 0.0
18/02:00am 21.4 14.9 4.5 33 8.3 NNE 28 35 15 19 1020.9 - 0.0
18/01:30am 21.7 15.7 5.2 34 8.2 NNE 26 35 14 19 1021.3 - 0.0
18/01:00am 18.2 13.0 9.0 55 4.8 NNE 26 30 14 16 1021.7 - 0.0
18/12:30am 18.9 13.9 9.4 54 5.0 NNE 26 32 14 17 1021.9 - 0.0
18/12:00am 19.7 14.5 8.7 49 5.8 NNE 26 33 14 18 1022.2 1022.2 0.0
 
Date/Time
EDT
Temp
°C
App
Temp
°C
Dew
Point
°C
Rel
Hum
%
Delta-T
°C
Wind Press
QNH
hPa
Press
MSL
hPa
Rain since
9am
mm
Dir  Spd
km/h
Gust
km/h
Spd
kts
Gust
kts
17/11:30pm 19.0 13.8 10.3 57 4.7 NNE 28 37 15 20 1022.3 - 0.0
17/11:00pm 16.9 11.7 11.6 71 2.9 NNE 30 35 16 19 1022.4 - 0.0
17/10:30pm 16.7 11.5 11.6 72 2.8 NNE 30 37 16 20 1022.6 - 0.0
17/10:00pm 17.2 11.5 11.2 68 3.3 NNE 32 39 17 21 1022.6 - 0.0
17/09:30pm 18.7 13.3 10.8 60 4.3 NNE 30 35 16 19 1022.6 - 0.0
17/09:00pm 17.6 12.1 10.7 64 3.7 NNE 30 35 16 19 1022.6 1022.6 0.0
17/08:30pm 17.8 12.2 10.2 61 4.1 NNE 30 35 16 19 1022.3 - 0.0
17/08:00pm 18.1 12.8 9.7 58 4.5 NNE 28 32 15 17 1022.1 - 0.0
17/07:30pm 19.5 13.8 8.5 49 5.7 NNE 28 32 15 17 1022.0 - 0.0
17/07:00pm 18.4 13.0 9.5 56 4.7 NNE 28 32 15 17 1022.0 - 0.0
17/06:30pm 18.0 13.3 10.6 62 4.0 NNE 26 30 14 16 1021.9 - 0.0
17/06:00pm 17.9 13.3 11.2 65 3.6 NNE 26 28 14 15 1021.8 1021.8 0.0
17/05:30pm 18.1 14.1 11.7 66 3.5 NNE 24 26 13 14 1021.8 - 0.0
17/05:00pm 18.5 14.4 11.6 64 3.8 NNE 24 26 13 14 1021.9 - 0.0
17/04:30pm 19.1 14.5 11.2 60 4.3 NNE 26 30 14 16 1021.9 - 0.0
17/04:00pm 18.5 14.9 12.9 70 3.2 NNE 24 28 13 15 1022.0 - 0.0
17/03:30pm 18.4 15.3 13.3 72 2.9 NNE 22 24 12 13 1022.1 - 0.0
17/03:00pm 18.6 15.4 13.2 71 3.1 NNE 22 24 12 13 1022.3 1022.3 0.0
17/02:30pm 18.8 15.1 12.8 68 3.4 NNE 24 26 13 14 1022.7 - 0.0
17/02:00pm 18.7 14.8 12.0 65 3.7 NNE 24 28 13 15 1022.8 - 0.0
17/01:30pm 18.5 13.9 12.3 67 3.5 NNE 28 30 15 16 1022.8 - 0.0
17/01:00pm 17.6 13.8 13.7 78 2.2 NNE 26 30 14 16 1023.0 - 0.0
17/12:30pm 17.3 14.0 14.0 81 1.9 NNE 24 28 13 15 1023.2 - 0.0
17/12:00pm 16.9 13.1 13.6 81 1.9 NNE 26 30 14 16 1023.4 1023.4 0.0
17/11:30am 16.8 13.3 13.5 81 1.9 NNE 24 28 13 15 1023.3 - 0.0
17/11:00am 16.8 13.3 13.5 81 1.9 NNE 24 28 13 15 1023.4 - 0.0
17/10:30am 16.5 12.3 13.4 82 1.7 NNE 28 30 15 16 1023.4 - 0.0
17/10:00am 16.5 12.3 13.4 82 1.7 NNE 28 30 15 16 1023.5 - 0.0
17/09:30am 16.7 13.8 12.8 78 2.2 NNE 20 24 11 13 1023.4 - 0.0
17/09:00am 17.9 16.3 12.8 72 2.9 NNE 13 15 7 8 1023.3 1023.3 0.0
17/08:30am 18.2 16.9 12.6 70 3.1 NNE 11 17 6 9 1023.4 - 0.0
17/08:00am 17.8 18.2 13.7 77 2.3 N 4 11 2 6 1023.1 - 0.0
17/07:30am 15.4 12.2 13.1 86 1.3 N 22 26 12 14 1022.7 - 0.0
17/07:00am 14.4 10.2 12.4 88 1.1 N 26 30 14 16 1022.2 - 0.0
17/06:30am 13.9 9.5 11.8 87 1.1 N 26 30 14 16 1021.9 - 0.0
17/06:00am 14.1 10.0 11.3 83 1.5 NNE 24 28 13 15 1021.7 1021.7 0.0
17/05:30am 15.3 10.9 10.5 73 2.5 NNE 24 28 13 15 1021.7 - 0.0
17/05:00am 18.3 14.3 9.1 55 4.8 N 20 24 11 13 1021.8 - 0.0
17/04:30am 19.3 14.8 8.6 50 5.6 N 22 28 12 15 1021.8 - 0.0
17/04:00am 17.4 13.0 10.3 63 3.8 N 24 28 13 15 1021.7 - 0.0
17/03:30am 16.9 13.2 10.1 64 3.6 N 20 26 11 14 1021.8 - 0.0
17/03:00am 18.9 14.9 9.1 53 5.1 NNE 20 26 11 14 1021.9 1021.9 0.0
17/02:30am 18.6 14.0 9.7 56 4.7 N 24 35 13 19 1022.0 - 0.0
17/02:00am 17.1 13.0 10.2 64 3.7 N 22 32 12 17 1022.6 - 0.0
17/01:30am 18.5 14.8 10.1 58 4.5 N 20 28 11 15 1023.0 - 0.0
17/01:00am 18.5 15.1 11.1 62 4.0 NNE 20 28 11 15 1023.4 - 0.0
17/12:30am 16.6 12.8 11.3 71 2.9 NNE 22 30 12 16 1023.7 - 0.0
17/12:00am 15.3 12.1 13.0 86 1.3 NNE 22 28 12 15 1023.8 1023.8 0.0
 
Date/Time
EDT
Temp
°C
App
Temp
°C
Dew
Point
°C
Rel
Hum
%
Delta-T
°C
Wind Press
QNH
hPa
Press
MSL
hPa
Rain since
9am
mm
Dir  Spd
km/h
Gust
km/h
Spd
kts
Gust
kts
16/11:30pm 14.9 11.4 13.3 90 0.9 NNE 24 28 13 15 1023.9 - 0.0
16/11:00pm 14.7 10.5 13.4 92 0.7 NNE 28 32 15 17 1023.7 - 0.0
16/10:30pm 14.1 10.1 13.0 93 0.6 NNE 26 28 14 15 1023.8 - 0.0
16/10:00pm 13.8 9.4 12.9 94 0.5 NNE 28 32 15 17 1023.8 - 0.0
16/09:30pm 13.6 9.5 12.7 94 0.5 NNE 26 30 14 16 1023.9 - 0.0
16/09:00pm 13.4 8.8 12.3 93 0.6 NNE 28 32 15 17 1024.0 1024.0 0.0
16/08:30pm 13.3 8.7 12.2 93 0.6 NNE 28 33 15 18 1023.8 - 0.0
16/08:00pm 13.3 7.9 12.2 93 0.6 NNE 32 35 17 19 1023.7 - 0.0
16/07:30pm 13.3 8.2 12.0 92 0.7 NNE 30 33 16 18 1023.7 - 0.0
16/07:00pm 13.4 7.9 12.0 91 0.8 NNE 32 35 17 19 1023.4 - 0.0
16/06:30pm 13.5 8.1 12.1 91 0.8 NNE 32 35 17 19 1023.3 - 0.0
16/06:00pm 13.6 8.1 12.0 90 0.9 NNE 32 35 17 19 1023.4 1023.4 0.0
16/05:30pm 13.8 8.3 12.0 89 1.0 NNE 32 35 17 19 1023.3 - 0.0
16/05:00pm 13.9 8.8 11.9 88 1.1 NNE 30 32 16 17 1023.4 - 0.0
16/04:30pm 14.1 9.4 12.0 87 1.1 NE 28 32 15 17 1023.5 - 0.0
16/04:00pm 13.8 9.0 11.5 86 1.2 NE 28 32 15 17 1023.7 - 0.0
16/03:30pm 14.2 9.4 11.7 85 1.3 NE 28 32 15 17 1024.0 - 0.0
16/03:00pm 14.8 10.5 11.9 83 1.6 NE 26 30 14 16 1024.3 1024.3 0.0
16/02:30pm 14.5 9.7 11.5 82 1.6 NE 28 33 15 18 1024.6 - 0.0
16/02:00pm 14.9 10.2 11.9 82 1.6 NNE 28 33 15 18 1024.7 - 0.0
16/01:30pm 15.2 11.4 12.5 84 1.5 NE 24 30 13 16 1025.0 - 0.0
16/01:00pm 14.9 10.4 12.6 86 1.3 NNE 28 30 15 16 1025.0 - 0.0
16/12:30pm 13.9 9.6 11.9 88 1.1 NE 26 32 14 17 1025.1 - 0.0
16/12:00pm 13.7 9.4 11.9 89 1.0 NE 26 32 14 17 1025.5 1025.6 0.0
16/11:30am 13.6 8.8 11.7 88 1.0 NE 28 35 15 19 1025.7 - 0.0
16/11:00am 14.0 8.8 11.7 86 1.2 NE 30 39 16 21 1025.8 - 0.0
16/10:30am 14.2 9.2 12.1 87 1.1 NNE 30 37 16 20 1025.8 - 0.0
16/10:00am 13.4 8.2 11.6 89 1.0 NNE 30 37 16 20 1025.9 - 0.0
16/09:30am 13.0 6.8 11.4 90 0.9 NNE 35 46 19 25 1025.4 - 0.0
16/09:00am 12.8 6.2 11.2 90 0.8 NNE 37 44 20 24 1025.2 1025.3 0.0
16/08:30am 12.6 6.3 11.2 91 0.7 NNE 35 44 19 24 1025.1 - 0.0
16/08:00am 12.0 6.2 10.7 92 0.7 NNE 32 39 17 21 1025.3 - 0.0
16/07:30am 11.7 6.2 10.6 93 0.6 NNE 30 39 16 21 1025.2 - 0.0
16/07:00am 11.5 6.0 10.4 93 0.6 NNE 30 37 16 20 1025.0 - 0.0
16/06:30am 11.4 5.8 10.3 93 0.6 NE 30 35 16 19 1024.8 - 0.0
16/06:00am 11.4 7.4 10.3 93 0.6 NNE 22 32 12 17 1024.7 1024.8 0.0
16/05:30am 11.6 7.2 10.5 93 0.6 NNE 24 30 13 16 1024.5 - 0.0
16/05:00am 11.5 8.1 10.4 93 0.6 NNE 19 24 10 13 1024.4 - 0.0
16/04:30am 11.4 8.7 10.3 93 0.6 NNE 15 20 8 11 1024.5 - 0.0
16/04:00am 11.4 9.4 10.1 92 0.7 NNE 11 15 6 8 1024.7 - 0.0
16/03:30am 11.3 8.9 10.0 92 0.7 NNE 13 17 7 9 1024.8 - 0.0
16/03:00am 11.3 8.5 10.0 92 0.7 NNE 15 19 8 10 1024.8 1024.9 0.0
16/02:30am 11.6 9.6 10.3 92 0.7 NNE 11 19 6 10 1025.1 - 0.0
16/02:00am 11.7 8.6 10.4 92 0.7 NNE 17 24 9 13 1025.2 - 0.0
16/01:30am 11.7 8.3 10.4 92 0.7 NNE 19 24 10 13 1025.4 - 0.0
16/01:00am 11.5 9.5 10.2 92 0.7 NNE 11 17 6 9 1025.7 - 0.0
16/12:30am 11.1 10.0 9.9 92 0.6 E 6 7 3 4 1025.7 - 0.0
16/12:00am 11.0 9.7 9.8 92 0.6 ENE 7 11 4 6 1025.7 1025.8 0.0
 
Date/Time
EDT
Temp
°C
App
Temp
°C
Dew
Point
°C
Rel
Hum
%
Delta-T
°C
Wind Press
QNH
hPa
Press
MSL
hPa
Rain since
9am
mm
Dir  Spd
km/h
Gust
km/h
Spd
kts
Gust
kts
15/11:30pm 11.2 10.5 9.9 92 0.7 NNW 4 7 2 4 1025.6 - 0.0
15/11:00pm 10.5 8.6 9.1 91 0.7 W 9 13 5 7 1025.7 - 0.0
15/10:30pm 10.7 8.9 9.3 91 0.7 W 9 13 5 7 1025.6 - 0.0
15/10:00pm 10.8 9.3 9.2 90 0.8 W 7 11 4 6 1025.5 - 0.0
15/09:30pm 10.8 8.6 9.2 90 0.8 W 11 17 6 9 1025.4 - 0.0
15/09:00pm 11.1 8.2 9.5 90 0.8 WSW 15 20 8 11 1025.2 1025.3 0.0
15/08:30pm 11.3 8.0 9.6 89 0.9 WSW 17 26 9 14 1024.9 - 0.0
15/08:00pm 11.5 6.9 9.6 88 1.0 WSW 24 33 13 18 1024.6 - 0.0
15/07:30pm 11.8 6.4 9.5 86 1.2 WSW 28 37 15 20 1024.2 - 0.0
15/07:00pm 12.1 6.8 9.7 85 1.2 WSW 28 37 15 20 1024.0 - 0.0
15/06:30pm 12.4 6.6 9.6 83 1.4 WSW 30 39 16 21 1023.9 - 0.0
15/06:00pm 12.4 5.7 9.6 83 1.4 WSW 35 41 19 22 1023.7 1023.7 0.0
15/05:30pm 12.5 4.6 9.5 82 1.5 WSW 41 46 22 25 1023.7 - 0.0
15/05:00pm 12.7 6.5 9.3 80 1.7 WSW 32 41 17 22 1023.7 - 0.0
15/04:30pm 12.8 6.0 9.3 79 1.8 WSW 35 41 19 22 1023.6 - 0.0
15/04:00pm 13.0 5.1 9.3 78 1.9 WSW 41 46 22 25 1023.6 - 0.0
15/03:30pm 13.0 5.0 9.1 77 2.0 WSW 41 46 22 25 1023.9 - 0.0
15/03:00pm 13.1 5.9 9.0 76 2.1 WSW 37 44 20 24 1024.1 1024.1 0.0
15/02:30pm 13.3 6.7 8.6 73 2.4 WSW 33 43 18 23 1024.4 - 0.0
15/02:00pm 13.5 7.0 9.0 74 2.3 W 33 41 18 22 1024.7 - 0.0
15/01:30pm 13.0 6.4 8.7 75 2.2 WSW 33 43 18 23 1024.5 - 0.0
15/01:00pm 12.9 6.5 8.6 75 2.2 WSW 32 44 17 24 1024.7 - 0.0
15/12:30pm 12.8 6.8 8.7 76 2.1 WSW 30 39 16 21 1024.7 - 0.0
15/12:00pm 12.9 7.3 8.6 75 2.1 W 28 35 15 19 1024.9 1025.0 0.0
15/11:30am 12.7 7.4 8.4 75 2.1 W 26 33 14 18 1025.2 - 0.0

Other Formats:

Comma delimited format used in spreadsheet applications
http://www.bom.gov.au/fwo/IDV60801/IDV60801.94893.axf

JavaScript Object Notation format (JSON) in row-major order
http://www.bom.gov.au/fwo/IDV60801/IDV60801.94893.json